Terminal Aerodrome Forecast
Issued by NWS

Current Version | Previous Version | Text Only | Print | Product List | Glossary Off
Versions: 1 2 3 4 5 6 7 8 9 10 11 12 13 14 15 16 17 18 19

000
FTUS44 KOHX 211700
TAFCKV
TAF
KCKV 211721Z 2118/2218 11006KT P6SM SCT250
     FM220200 12004KT P6SM BKN035
     FM220800 14004KT P6SM OVC025
     FM221300 16008KT P6SM OVC015 PROB30 2214/2218 4SM -DZ BR=

USA.gov is the U.S. government's official web portal to all federal, state and local government web resources and services.